Time;durP1;ratioP1;P1;durP2;ratioP2;P2;SDS_P1;SDS_P2;PMS_P1;PMS_P2;Temp;Humidity;BMP_temperature;BMP_pressure;BME280_temperature;BME280_humidity;BME280_pressure;Samples;Min_cycle;Max_cycle;Signal;HPM_P1;HPM_P2
2022/11/10 00:00:07;;;;;;;52.03;29.63;;;;;;;9.58;80.38;100362.66;2222265;80;32357;-59
2022/11/10 00:03:11;;;;;;;53.02;29.07;;;;;;;9.63;80.44;100368.24;2198880;80;29318;-60
2022/11/10 00:06:13;;;;;;;52.13;30.70;;;;;;;9.64;80.52;100366.86;2222339;79;29881;-59
2022/11/10 00:09:15;;;;;;;50.52;28.98;;;;;;;9.68;80.62;100371.10;2198495;81;27677;-60
2022/11/10 00:12:17;;;;;;;49.18;29.67;;;;;;;9.72;80.70;100371.86;2223035;79;29107;-59
2022/11/10 00:18:39;;;;;;;50.10;28.67;;;;;;;9.78;80.85;100376.06;2222475;80;33518;-59
2022/11/10 00:21:41;;;;;;;50.58;30.27;;;;;;;9.80;80.96;100375.53;2198030;81;29070;-59
2022/11/10 00:24:44;;;;;;;50.40;31.02;;;;;;;9.82;81.02;100373.66;2222646;79;27667;-60
2022/11/10 00:27:45;;;;;;;52.93;30.30;;;;;;;9.84;81.12;100375.31;2198416;81;29074;-59
2022/11/10 00:30:47;;;;;;;58.33;32.05;;;;;;;9.87;81.15;100383.66;2222523;79;31019;-62
2022/11/10 00:33:49;;;;;;;52.93;31.33;;;;;;;9.88;81.22;100378.25;2197878;81;35094;-59
2022/11/10 00:36:54;;;;;;;56.10;31.07;;;;;;;9.91;81.29;100389.27;2222419;80;29880;-61
2022/11/10 00:39:56;;;;;;;54.95;32.28;;;;;;;9.92;81.35;100387.00;2198183;81;27689;-59
2022/11/10 00:42:58;;;;;;;56.10;31.02;;;;;;;9.94;81.43;100393.61;2222729;79;29109;-59
2022/11/10 00:45:59;;;;;;;52.98;31.27;;;;;;;9.95;81.45;100392.22;2198235;81;32387;-60
2022/11/10 00:49:01;;;;;;;59.03;34.95;;;;;;;9.97;81.54;100396.16;2222547;80;32916;-59
2022/11/10 00:52:03;;;;;;;56.25;33.85;;;;;;;10.00;81.64;100391.55;2198151;81;29974;-58
2022/11/10 00:55:06;;;;;;;61.63;34.60;;;;;;;10.01;81.68;100391.06;2223265;80;27683;-59
2022/11/10 00:58:08;;;;;;;56.90;33.02;;;;;;;10.03;81.70;100394.06;2198146;80;29536;-58
2022/11/10 01:01:11;;;;;;;47.88;30.62;;;;;;;10.04;81.77;100399.81;2222547;80;31875;-59
2022/11/10 01:04:13;;;;;;;53.98;33.20;;;;;;;10.06;81.78;100395.75;2198325;81;33105;-62
2022/11/10 01:07:15;;;;;;;49.90;29.98;;;;;;;10.08;81.77;100404.58;2198965;80;29263;-60
2022/11/10 01:10:17;;;;;;;57.43;31.97;;;;;;;10.09;81.81;100404.98;2198342;81;27644;-59
2022/11/10 01:13:19;;;;;;;53.10;32.85;;;;;;;10.09;81.86;100399.63;2222579;80;29381;-58
2022/11/10 01:16:30;;;;;;;61.80;32.80;;;;;;;10.09;81.86;100396.06;2198538;81;30807;-59
2022/11/10 01:19:32;;;;;;;55.45;30.68;;;;;;;10.09;81.87;100406.77;2222422;79;34208;-59
2022/11/10 01:22:35;;;;;;;54.93;30.48;;;;;;;10.09;81.93;100404.98;2198108;81;30300;-59
2022/11/10 01:25:37;;;;;;;55.48;31.37;;;;;;;10.09;81.95;100406.32;2222908;80;28182;-60
2022/11/10 01:28:38;;;;;;;51.48;31.40;;;;;;;10.10;81.97;100409.85;2198213;81;29699;-61
2022/11/10 01:31:40;;;;;;;49.50;30.17;;;;;;;10.10;81.97;100416.55;2222841;80;32234;-59
2022/11/10 01:34:42;;;;;;;53.33;31.62;;;;;;;10.09;82.01;100406.32;2198520;81;32956;-59
2022/11/10 01:37:44;;;;;;;52.62;30.50;;;;;;;10.09;82.07;100409.00;2222606;79;30206;-60
2022/11/10 01:40:46;;;;;;;51.20;30.52;;;;;;;10.08;82.06;100409.05;2198477;81;27692;-60
2022/11/10 01:43:48;;;;;;;52.67;31.45;;;;;;;10.08;82.11;100415.73;2222366;79;29887;-58
2022/11/10 01:46:49;;;;;;;49.30;30.50;;;;;;;10.08;82.18;100419.75;2198170;81;32384;-58
2022/11/10 01:49:51;;;;;;;54.93;31.07;;;;;;;10.08;82.18;100415.73;2222942;80;32834;-60
2022/11/10 01:52:56;;;;;;;49.80;30.80;;;;;;;10.08;82.25;100415.73;2198050;80;30211;-61
2022/11/10 01:55:58;;;;;;;45.73;28.25;;;;;;;10.09;82.30;100418.81;2222598;80;27601;-62
2022/11/10 01:59:04;;;;;;;51.58;30.50;;;;;;;10.08;82.32;100421.98;2198608;80;29038;-59
2022/11/10 02:02:20;;;;;;;49.85;30.00;;;;;;;10.08;82.36;100427.33;2222492;79;32084;-59
2022/11/10 02:05:23;;;;;;;47.53;29.25;;;;;;;10.09;82.38;100430.86;2220894;80;34466;-59
2022/11/10 02:08:25;;;;;;;46.55;28.52;;;;;;;10.08;82.39;100425.99;2198172;80;28494;-59
2022/11/10 02:11:29;;;;;;;49.67;28.95;;;;;;;10.09;82.46;100430.86;2223082;80;27667;-59
2022/11/10 02:14:32;;;;;;;33.80;22.03;;;;;;;10.08;82.48;100433.14;2198636;81;29469;-59
2022/11/10 02:17:34;;;;;;;46.80;28.45;;;;;;;10.08;82.52;100439.83;2222363;80;32010;-59
2022/11/10 02:20:36;;;;;;;49.63;30.43;;;;;;;10.07;82.52;100439.43;2198162;81;34483;-60
2022/11/10 02:23:43;;;;;;;49.60;31.87;;;;;;;10.06;82.55;100431.88;2222389;80;30194;-58
2022/11/10 02:26:54;;;;;;;50.83;31.10;;;;;;;10.07;82.60;100438.09;2198502;81;27740;-62
2022/11/10 02:29:57;;;;;;;50.90;33.15;;;;;;;10.07;82.65;100442.98;2222524;80;29869;-59
2022/11/10 02:32:59;;;;;;;53.28;31.57;;;;;;;10.07;82.67;100442.11;2198431;81;32280;-58
2022/11/10 02:36:00;;;;;;;49.90;30.05;;;;;;;10.07;82.70;100451.47;2222304;80;33682;-62
2022/11/10 02:39:03;;;;;;;46.35;28.30;;;;;;;10.06;82.72;100453.30;2198044;81;29427;-59
2022/11/10 02:42:09;;;;;;;44.75;28.90;;;;;;;10.07;82.74;100459.50;2222766;80;27817;-60
2022/11/10 02:45:11;;;;;;;44.60;28.05;;;;;;;10.06;82.76;100449.28;2205617;80;29246;-59
2022/11/10 02:48:15;;;;;;;54.13;29.77;;;;;;;10.05;82.78;100451.55;2224780;80;32405;-60
2022/11/10 02:51:16;;;;;;;49.23;29.27;;;;;;;10.05;82.81;100451.55;2207274;80;32946;-60
2022/11/10 02:54:18;;;;;;;47.90;26.90;;;;;;;10.05;82.89;100448.88;2225470;79;29357;-59
2022/11/10 02:57:20;;;;;;;50.52;29.45;;;;;;;10.04;82.91;100455.17;2207417;80;27926;-60
2022/11/10 03:00:22;;;;;;;46.20;29.85;;;;;;;10.05;82.92;100459.59;2224787;80;30118;-60
2022/11/10 03:03:24;;;;;;;41.75;26.55;;;;;;;10.03;82.98;100458.30;2206899;80;32256;-59
2022/11/10 03:06:26;;;;;;;45.38;27.15;;;;;;;10.04;82.99;100470.74;2224856;80;33504;-59
2022/11/10 03:09:28;;;;;;;45.98;28.20;;;;;;;10.03;82.99;100469.48;2206927;80;30319;-60
2022/11/10 03:12:30;;;;;;;46.70;28.45;;;;;;;10.01;82.98;100469.53;2224815;79;28206;-59
2022/11/10 03:15:31;;;;;;;45.73;27.20;;;;;;;10.01;83.02;100478.91;2207644;80;29063;-60
2022/11/10 03:18:33;;;;;;;47.70;29.75;;;;;;;10.01;83.04;100482.06;2224864;80;32224;-60
2022/11/10 03:21:36;;;;;;;46.80;29.87;;;;;;;10.00;83.02;100489.23;2206987;80;33006;-59
2022/11/10 03:24:38;;;;;;;43.85;27.27;;;;;;;9.99;83.02;100498.66;2225098;80;29805;-60
2022/11/10 03:27:40;;;;;;;45.40;28.23;;;;;;;9.98;83.09;100496.91;2207289;80;27625;-60
2022/11/10 03:30:42;;;;;;;50.25;30.15;;;;;;;9.97;83.03;100489.37;2225151;79;28987;-61
2022/11/10 03:33:44;;;;;;;45.65;28.83;;;;;;;9.96;83.07;100497.45;2206760;80;31876;-62
2022/11/10 03:36:45;;;;;;;42.38;27.67;;;;;;;9.96;83.12;100502.80;2224789;80;33128;-59
2022/11/10 03:39:47;;;;;;;46.90;28.87;;;;;;;9.94;83.12;100513.59;2207062;80;30135;-60
2022/11/10 03:42:49;;;;;;;41.80;28.25;;;;;;;9.94;83.21;100518.05;2224912;80;27672;-60
2022/11/10 03:45:51;;;;;;;48.70;29.35;;;;;;;9.95;83.26;100527.82;2207058;80;29911;-60
2022/11/10 03:48:53;;;;;;;47.75;28.70;;;;;;;9.95;83.27;100527.82;2228495;79;32092;-60
2022/11/10 03:51:55;;;;;;;43.50;27.02;;;;;;;9.96;83.37;100533.13;2207429;80;32899;-59
2022/11/10 03:54:56;;;;;;;42.10;27.95;;;;;;;9.97;83.46;100530.85;2229249;79;30237;-59
2022/11/10 03:58:02;;;;;;;42.80;27.32;;;;;;;9.98;83.46;100525.91;2207310;80;27701;-62
2022/11/10 04:01:04;;;;;;;49.95;29.72;;;;;;;9.99;83.49;100526.31;2228814;79;28638;-60
2022/11/10 04:08:57;;;;;;;46.60;28.87;;;;;;;9.99;83.51;100526.31;2207228;80;31743;-59
2022/11/10 04:10:37;;;;;;;51.00;29.50;;;;;;;10.00;83.56;100524.03;2207130;80;31123;-63
2022/11/10 04:16:55;;;;;;;41.25;28.00;;;;;;;10.01;83.63;100520.88;2174338;81;28820;-59
2022/11/10 04:19:57;;;;;;;44.60;28.07;;;;;;;10.01;83.62;100527.08;2208471;80;31829;-59
2022/11/10 04:26:28;;;;;;;40.98;26.35;;;;;;;10.00;83.65;100529.84;2208555;80;30239;-58
2022/11/10 04:29:29;;;;;;;42.55;25.50;;;;;;;9.99;83.68;100526.76;2208407;80;27739;-58
2022/11/10 04:32:31;;;;;;;38.73;24.87;;;;;;;9.99;83.68;100522.75;2208319;80;29085;-58
2022/11/10 04:35:33;;;;;;;37.28;24.27;;;;;;;9.98;83.68;100526.36;2208801;80;31577;-64
2022/11/10 04:38:34;;;;;;;42.40;26.07;;;;;;;9.96;83.69;100527.77;2208692;80;32967;-59
2022/11/10 04:41:37;;;;;;;43.13;24.92;;;;;;;9.96;83.63;100533.58;2208479;80;29585;-65
2022/11/10 04:44:39;;;;;;;39.23;24.90;;;;;;;9.95;83.65;100542.54;2208541;80;27735;-59
2022/11/10 04:47:40;;;;;;;38.28;24.30;;;;;;;9.93;83.65;100548.45;2209052;80;29263;-60
2022/11/10 04:50:42;;;;;;;34.63;23.85;;;;;;;9.93;83.61;100556.48;2208296;80;31458;-59
2022/11/10 04:53:44;;;;;;;36.33;23.65;;;;;;;9.92;83.62;100562.77;2222733;80;34145;-58
2022/11/10 04:56:45;;;;;;;35.28;22.87;;;;;;;9.90;83.61;100560.62;2207156;80;30380;-59
2022/11/10 04:59:47;;;;;;;35.65;23.75;;;;;;;9.88;83.62;100565.58;2225287;80;28090;-59
2022/11/10 05:02:48;;;;;;;33.73;21.37;;;;;;;9.88;83.67;100576.72;2207470;80;28455;-58
2022/11/10 05:05:51;;;;;;;39.42;24.55;;;;;;;9.87;83.69;100577.20;2225376;79;31442;-61
2022/11/10 05:08:52;;;;;;;37.20;25.08;;;;;;;9.87;83.77;100580.34;2207090;80;33691;-59
2022/11/10 05:11:54;;;;;;;33.48;22.62;;;;;;;9.87;83.79;100582.56;2225422;80;28798;-59
2022/11/10 05:14:56;;;;;;;42.65;25.62;;;;;;;9.87;83.83;100579.00;2207401;80;27629;-65
2022/11/10 05:17:57;;;;;;;36.13;23.15;;;;;;;9.86;83.85;100580.81;2225432;80;29865;-59
2022/11/10 05:20:59;;;;;;;38.65;23.60;;;;;;;9.85;83.90;100585.77;2207423;80;32160;-58
2022/11/10 05:24:01;;;;;;;36.42;22.37;;;;;;;9.85;83.92;100589.78;2225265;80;33354;-58
2022/11/10 05:27:03;;;;;;;38.45;24.45;;;;;;;9.86;83.95;100591.52;2207441;80;29408;-58
2022/11/10 05:30:06;;;;;;;37.75;23.18;;;;;;;9.84;83.87;100592.53;2225482;80;27652;-59
2022/11/10 05:33:08;;;;;;;40.00;23.20;;;;;;;9.83;83.89;100613.53;2207450;80;28658;-59
2022/11/10 05:36:10;;;;;;;31.55;20.50;;;;;;;9.82;83.90;100613.13;2225113;80;31435;-58
2022/11/10 05:39:15;;;;;;;32.28;19.77;;;;;;;9.80;83.89;100617.67;2206936;80;34175;-63
2022/11/10 05:42:17;;;;;;;32.67;20.48;;;;;;;9.78;83.91;100623.06;2225602;79;29398;-59
2022/11/10 05:45:23;;;;;;;32.42;20.50;;;;;;;9.76;83.92;100627.63;2207412;80;27617;-59
2022/11/10 05:48:24;;;;;;;28.32;18.92;;;;;;;9.75;83.90;100634.37;2228765;79;28674;-59
2022/11/10 05:51:26;;;;;;;29.63;17.73;;;;;;;9.73;83.83;100637.12;2207427;80;31477;-59
2022/11/10 05:54:27;;;;;;;30.40;19.27;;;;;;;9.70;83.79;100647.94;2229150;79;33724;-59
2022/11/10 05:57:29;;;;;;;28.92;18.20;;;;;;;9.66;83.79;100648.54;2207408;80;30185;-64
2022/11/10 06:00:31;;;;;;;32.45;19.65;;;;;;;9.64;83.77;100653.08;2229146;79;28272;-59
2022/11/10 06:03:33;;;;;;;27.37;19.15;;;;;;;9.62;83.82;100665.64;2207295;80;29892;-64
2022/11/10 06:06:35;;;;;;;28.27;18.77;;;;;;;9.58;83.83;100664.89;2229542;79;31001;-59
2022/11/10 06:09:36;;;;;;;28.25;17.55;;;;;;;9.56;83.90;100672.11;2207699;80;33764;-59
2022/11/10 06:12:38;;;;;;;27.15;18.15;;;;;;;9.55;83.94;100676.16;2228692;79;30060;-58
2022/11/10 06:15:40;;;;;;;24.18;15.40;;;;;;;9.54;83.95;100676.64;2207507;80;27656;-58
2022/11/10 06:18:42;;;;;;;23.32;15.90;;;;;;;9.54;83.99;100687.78;2228676;79;30319;-59
2022/11/10 06:21:44;;;;;;;25.77;16.32;;;;;;;9.53;83.98;100697.63;2207820;80;31555;-59
2022/11/10 06:24:46;;;;;;;22.82;15.03;;;;;;;9.52;83.96;100698.55;2228790;79;34193;-58
2022/11/10 06:27:47;;;;;;;25.00;15.85;;;;;;;9.51;83.95;100710.19;2207272;80;30021;-58
2022/11/10 06:30:50;;;;;;;21.30;14.68;;;;;;;9.50;83.94;100722.29;2229032;79;27672;-58
2022/11/10 06:33:51;;;;;;;21.50;14.63;;;;;;;9.49;83.99;100724.08;2207743;80;29081;-59
2022/11/10 06:36:53;;;;;;;20.85;12.65;;;;;;;9.49;84.07;100727.23;2228734;79;32046;-58
2022/11/10 06:39:55;;;;;;;24.20;15.63;;;;;;;9.50;84.17;100737.86;2207570;80;33349;-58
2022/11/10 06:42:57;;;;;;;22.05;14.85;;;;;;;9.52;84.24;100734.66;2228799;79;29888;-58
2022/11/10 06:46:01;;;;;;;21.68;12.98;;;;;;;9.54;84.31;100746.18;2207073;80;27596;-59
2022/11/10 06:49:03;;;;;;;21.62;12.82;;;;;;;9.56;84.28;100751.02;2226053;80;29800;-58
2022/11/10 06:52:05;;;;;;;18.20;11.68;;;;;;;9.58;84.26;100764.31;2207381;80;31382;-65
2022/11/10 06:55:08;;;;;;;18.73;12.63;;;;;;;9.58;84.25;100766.98;2224938;80;33379;-62
2022/11/10 06:58:10;;;;;;;20.45;12.07;;;;;;;9.60;84.18;100773.64;2207258;80;29823;-58
2022/11/10 07:01:11;;;;;;;19.05;12.53;;;;;;;9.61;84.21;100776.69;2225416;80;27592;-59
2022/11/10 07:04:14;;;;;;;16.87;11.50;;;;;;;9.63;84.24;100776.17;2207470;80;28862;-59
2022/11/10 07:07:16;;;;;;;21.15;13.20;;;;;;;9.65;84.25;100786.34;2225320;80;31024;-59
2022/11/10 07:10:18;;;;;;;16.40;11.65;;;;;;;9.67;84.26;100786.72;2207019;80;34158;-58
2022/11/10 07:13:22;;;;;;;17.32;11.65;;;;;;;9.70;84.25;100799.09;2224994;80;29452;-58
2022/11/10 07:16:23;;;;;;;16.50;11.40;;;;;;;9.75;84.31;100802.92;2207339;80;27653;-64
2022/11/10 07:19:25;;;;;;;20.00;11.18;;;;;;;9.78;84.35;100802.81;2225076;80;29361;-59
2022/11/10 07:22:26;;;;;;;17.57;12.18;;;;;;;9.80;84.37;100801.81;2207014;80;31442;-61
2022/11/10 07:25:31;;;;;;;20.12;11.50;;;;;;;9.83;84.33;100813.74;2224896;80;33598;-59
2022/11/10 07:28:32;;;;;;;17.50;10.90;;;;;;;9.86;84.31;100818.09;2207533;80;29019;-58
2022/11/10 07:31:34;;;;;;;14.95;10.80;;;;;;;9.88;84.32;100825.60;2225196;80;27667;-58
2022/11/10 07:34:36;;;;;;;16.85;10.50;;;;;;;9.90;84.33;100830.44;2207296;80;29512;-59
2022/11/10 07:37:38;;;;;;;16.02;10.40;;;;;;;9.93;84.24;100829.47;2225212;80;31405;-59
2022/11/10 07:40:40;;;;;;;17.67;10.78;;;;;;;9.95;84.16;100837.83;2206967;80;34197;-61
2022/11/10 07:43:41;;;;;;;16.70;10.85;;;;;;;9.96;84.13;100840.03;2224925;80;30377;-58
2022/11/10 07:46:44;;;;;;;24.52;11.08;;;;;;;9.97;84.06;100845.79;2207186;80;27688;-60
2022/11/10 07:49:45;;;;;;;18.70;10.70;;;;;;;9.96;83.97;100848.06;2228897;79;29574;-58
2022/11/10 07:52:47;;;;;;;18.30;11.35;;;;;;;9.93;83.89;100854.89;2207603;80;31058;-58
2022/11/10 07:55:52;;;;;;;15.35;10.53;;;;;;;9.89;83.79;100850.09;2228965;79;34223;-58
2022/11/10 07:58:53;;;;;;;20.02;10.75;;;;;;;9.85;83.77;100864.06;2207828;80;29138;-63
2022/11/10 08:01:55;;;;;;;17.52;10.65;;;;;;;9.81;83.75;100870.45;2229320;79;27656;-59
2022/11/10 08:04:57;;;;;;;19.55;10.80;;;;;;;9.78;83.71;100871.05;2207173;80;29839;-58
2022/11/10 08:07:59;;;;;;;19.30;10.78;;;;;;;9.76;83.83;100877.80;2229078;79;32157;-62
2022/11/10 08:11:01;;;;;;;26.87;12.13;;;;;;;9.77;83.98;100877.33;2207600;80;33340;-65
2022/11/10 08:14:02;;;;;;;16.25;10.70;;;;;;;9.78;84.18;100887.09;2229211;79;29362;-63
2022/11/10 08:17:04;;;;;;;18.35;13.32;;;;;;;9.82;84.30;100889.59;2207548;80;27685;-65
2022/11/10 08:20:08;;;;;;;20.10;11.43;;;;;;;9.87;84.46;100893.44;2229120;79;29878;-64
2022/11/10 08:23:10;;;;;;;25.15;12.40;;;;;;;9.94;84.56;100888.72;2207528;80;31852;-64
2022/11/10 08:26:15;;;;;;;15.48;10.98;;;;;;;10.06;84.82;100894.09;2228588;79;32737;-65
2022/11/10 08:29:16;;;;;;;18.15;10.00;;;;;;;10.18;84.86;100902.98;2207615;80;29191;-64
2022/11/10 08:32:18;;;;;;;17.07;10.25;;;;;;;10.28;84.77;100906.18;2228819;79;27635;-63
2022/11/10 08:35:20;;;;;;;13.68;9.40;;;;;;;10.42;84.96;100910.59;2207226;80;29727;-59
2022/11/10 08:38:23;;;;;;;17.40;10.45;;;;;;;10.61;85.06;100911.17;2207191;80;32326;-63
2022/11/10 08:41:25;;;;;;;13.88;8.30;;;;;;;10.78;85.06;100918.07;2228938;79;34120;-64
2022/11/10 08:44:26;;;;;;;14.35;8.45;;;;;;;10.94;85.07;100921.02;2207544;80;29427;-60
2022/11/10 08:47:28;;;;;;;13.55;6.92;;;;;;;11.10;84.87;100932.44;2207348;80;27736;-64
2022/11/10 08:50:30;;;;;;;13.45;7.42;;;;;;;11.16;84.34;100929.52;2218082;80;29549;-64
2022/11/10 08:53:32;;;;;;;13.30;6.80;;;;;;;11.20;83.98;100939.15;2217903;80;31040;-60
2022/11/10 08:56:34;;;;;;;15.08;7.30;;;;;;;11.22;83.80;100948.01;2218284;80;33289;-58
2022/11/10 08:59:36;;;;;;;12.40;6.15;;;;;;;11.23;83.71;100939.03;2218191;80;29373;-58
2022/11/10 09:02:37;;;;;;;14.53;6.62;;;;;;;11.28;83.57;100952.72;2218221;80;27989;-58
2022/11/10 09:05:40;;;;;;;10.75;7.00;;;;;;;11.25;83.34;100957.27;2218270;80;29863;-58
2022/11/10 09:08:42;;;;;;;16.25;6.40;;;;;;;11.29;83.50;100963.38;2218035;80;31928;-58
2022/11/10 09:11:44;;;;;;;13.58;6.03;;;;;;;11.37;83.69;100960.36;2218123;80;34181;-62
2022/11/10 09:14:46;;;;;;;14.33;6.25;;;;;;;11.46;83.84;100968.04;2218497;80;28789;-59
2022/11/10 09:17:48;;;;;;;10.95;4.92;;;;;;;11.57;83.92;100976.98;2218354;80;27684;-59
2022/11/10 09:20:49;;;;;;;11.43;5.45;;;;;;;11.66;83.67;100975.22;2218706;80;28149;-62
2022/11/10 09:23:51;;;;;;;11.10;4.97;;;;;;;11.75;83.69;100978.47;2218234;80;31115;-60
2022/11/10 09:26:53;;;;;;;13.20;5.10;;;;;;;11.84;83.57;100982.93;2218508;80;33335;-61
2022/11/10 09:29:54;;;;;;;11.75;5.25;;;;;;;11.94;83.52;100990.59;2218391;80;29034;-58
2022/11/10 09:32:59;;;;;;;11.73;5.15;;;;;;;12.05;83.45;100992.36;2218075;80;27721;-59
2022/11/10 09:36:01;;;;;;;7.67;4.87;;;;;;;12.13;83.33;100992.91;2218131;80;29625;-59
2022/11/10 09:39:03;;;;;;;12.88;5.35;;;;;;;12.25;83.33;100995.96;2218319;80;32226;-59
2022/11/10 09:42:19;;;;;;;12.88;5.22;;;;;;;12.34;83.17;100998.22;2218097;80;34149;-59
2022/11/10 09:45:28;;;;;;;9.30;4.33;;;;;;;12.45;82.72;101003.98;2183029;81;29017;-63
2022/11/10 09:48:34;;;;;;;9.95;4.40;;;;;;;12.57;82.58;101008.38;2107253;84;27661;-60
2022/11/10 09:51:39;;;;;;;12.82;5.28;;;;;;;12.66;82.24;101005.73;2168381;82;28678;-58
2022/11/10 09:54:52;;;;;;;8.80;3.77;;;;;;;12.75;81.99;101009.33;2108220;84;31396;-59
2022/11/10 09:57:55;;;;;;;9.88;3.72;;;;;;;12.83;81.63;101008.95;2168201;82;33015;-63
2022/11/10 10:01:05;;;;;;;7.97;3.67;;;;;;;12.88;81.41;101006.47;2146104;82;29890;-58
2022/11/10 10:04:27;;;;;;;15.32;4.33;;;;;;;12.91;81.16;101010.34;2145062;82;27735;-59
2022/11/10 10:08:06;;;;;;;12.23;3.83;;;;;;;12.94;80.83;101021.89;2145956;82;30106;-58
2022/11/10 10:11:22;;;;;;;8.90;3.65;;;;;;;12.97;80.59;101021.75;2145943;82;31886;-59
2022/11/10 10:14:45;;;;;;;8.83;3.83;;;;;;;12.98;80.33;101024.84;2146280;82;32949;-59
2022/11/10 10:18:11;;;;;;;7.70;3.85;;;;;;;12.99;80.04;101034.17;2146143;82;30304;-59
2022/11/10 10:21:34;;;;;;;14.38;4.55;;;;;;;12.96;79.65;101030.31;2150665;82;27720;-58
2022/11/10 10:24:37;;;;;;;10.23;4.22;;;;;;;12.92;79.21;101026.87;2161738;82;28876;-58
2022/11/10 10:27:40;;;;;;;9.70;3.90;;;;;;;12.91;79.35;101035.88;2161369;82;31839;-63
2022/11/10 10:30:43;;;;;;;8.63;3.52;;;;;;;12.94;79.46;101018.75;2125165;83;32958;-59
2022/11/10 10:33:47;;;;;;;7.25;4.25;;;;;;;12.94;79.10;101029.96;2161373;82;29069;-58
2022/11/10 10:36:48;;;;;;;7.55;3.35;;;;;;;12.97;79.12;101033.40;2125082;83;27704;-58
2022/11/10 10:39:59;;;;;;;11.33;3.30;;;;;;;13.00;78.93;101031.02;2122790;83;29266;-60
2022/11/10 10:42:58;;;;;;;7.20;3.27;;;;;;;13.00;78.71;101033.23;2161187;82;31019;-58
2022/11/10 10:46:10;;;;;;;15.68;3.87;;;;;;;12.97;78.22;101029.37;2176303;79;33583;-59
2022/11/10 10:49:22;;;;;;;6.92;3.60;;;;;;;12.97;78.22;101029.37;2218147;80;30607;-59
2022/11/10 10:52:24;;;;;;;12.20;3.02;;;;;;;13.01;78.40;101031.42;2218741;80;28186;-58
2022/11/10 10:55:27;;;;;;;11.00;3.27;;;;;;;13.04;78.16;101033.48;2218367;80;28711;-58
2022/11/10 10:58:34;;;;;;;8.88;3.65;;;;;;;13.07;77.87;101033.83;2218320;80;31063;-58
2022/11/10 11:01:39;;;;;;;7.67;3.70;;;;;;;13.08;77.64;101040.92;2218612;80;33744;-58
2022/11/10 11:04:42;;;;;;;8.23;3.98;;;;;;;13.05;77.37;101029.85;2218254;80;30362;-59
2022/11/10 11:07:59;;;;;;;12.63;4.05;;;;;;;13.01;77.03;101042.19;2218828;80;27628;-59
2022/11/10 11:11:09;;;;;;;10.03;3.67;;;;;;;12.95;77.17;101047.39;2218373;80;29451;-60
2022/11/10 11:14:24;;;;;;;7.67;3.65;;;;;;;12.90;76.93;101049.42;2218652;80;31016;-59
2022/11/10 11:17:26;;;;;;;10.60;3.30;;;;;;;12.86;77.04;101050.50;2218964;80;33744;-59
2022/11/10 11:20:39;;;;;;;8.65;3.72;;;;;;;12.82;76.97;101053.81;2218816;80;29011;-63
2022/11/10 11:24:03;;;;;;;8.73;3.33;;;;;;;12.84;77.03;101054.62;2157551;82;27770;-61
2022/11/10 11:27:36;;;;;;;6.22;2.65;;;;;;;12.86;76.80;101059.91;2156982;82;29955;-59
2022/11/10 11:30:52;;;;;;;8.13;2.47;;;;;;;12.86;76.61;101051.39;2154059;82;31713;-59
2022/11/10 11:34:11;;;;;;;7.37;2.33;;;;;;;12.81;76.25;101047.17;2157204;82;33709;-59
2022/11/10 11:37:45;;;;;;;6.33;2.42;;;;;;;12.76;76.02;101054.09;2156938;82;28422;-61
2022/11/10 11:41:11;;;;;;;7.00;2.72;;;;;;;12.73;76.27;101058.29;2157169;82;27770;-59
2022/11/10 11:44:36;;;;;;;11.43;3.02;;;;;;;12.68;76.15;101059.82;2157028;82;29547;-59
2022/11/10 11:48:01;;;;;;;9.63;2.75;;;;;;;12.63;76.04;101048.44;2154450;82;32058;-59
2022/11/10 11:51:29;;;;;;;9.55;3.20;;;;;;;12.58;75.90;101050.45;2153384;82;34292;-58
2022/11/10 11:55:19;;;;;;;7.60;3.35;;;;;;;12.54;75.82;101048.38;2153392;82;30418;-58
2022/11/10 11:58:35;;;;;;;12.58;3.55;;;;;;;12.48;75.84;101058.06;2153781;82;28371;-59
2022/11/10 12:02:33;;;;;;;9.35;3.40;;;;;;;12.42;76.02;101061.91;2201197;80;29235;-62
2022/11/10 12:06:11;;;;;;;5.40;2.52;;;;;;;12.40;76.04;101060.23;2214402;80;31117;-58
2022/11/10 12:09:18;;;;;;;9.35;3.02;;;;;;;12.40;76.08;101066.47;2213221;80;32958;-58
2022/11/10 12:13:00;;;;;;;8.98;2.75;;;;;;;12.43;76.07;101068.13;2214303;80;29733;-58
2022/11/10 12:16:34;;;;;;;13.88;6.47;;;;;;;12.46;76.02;101070.69;2214143;80;27675;-58
2022/11/10 12:19:58;;;;;;;15.88;6.70;;;;;;;12.50;75.87;101074.10;2214408;79;28647;-62
2022/11/10 12:23:35;;;;;;;15.40;4.40;;;;;;;12.53;75.81;101072.62;2213168;80;32433;-61
2022/11/10 12:26:54;;;;;;;5.92;3.45;;;;;;;12.59;75.77;101077.25;2213646;80;34242;-60
2022/11/10 12:30:10;;;;;;;7.00;2.70;;;;;;;12.63;75.72;101080.69;2214032;80;29082;-58
2022/11/10 12:33:22;;;;;;;6.60;2.80;;;;;;;12.70;75.73;101079.94;2214731;80;28134;-60
2022/11/10 12:36:27;;;;;;;10.18;3.30;;;;;;;12.75;75.53;101082.80;2214356;80;29518;-59
2022/11/10 12:39:39;;;;;;;8.10;2.87;;;;;;;12.88;75.83;101086.27;2214818;80;32269;-60
2022/11/10 12:42:47;;;;;;;12.53;3.58;;;;;;;13.06;75.80;101091.27;2111336;82;33119;-60
2022/11/10 12:45:52;;;;;;;10.43;3.20;;;;;;;13.24;75.71;101096.23;2111476;84;29022;-59
2022/11/10 12:49:17;;;;;;;7.80;2.62;;;;;;;13.45;75.49;101097.03;2133423;83;27759;-59
2022/11/10 12:52:30;;;;;;;5.65;2.80;;;;;;;13.62;75.32;101097.56;2074445;85;29548;-58
2022/11/10 12:55:43;;;;;;;11.60;2.80;;;;;;;13.73;74.94;101105.11;2132617;83;31224;-59
2022/11/10 12:58:45;;;;;;;8.80;3.22;;;;;;;13.77;74.67;101110.72;2074168;85;33780;-59
2022/11/10 13:01:50;;;;;;;9.88;3.37;;;;;;;13.77;74.50;101111.20;2074312;85;30192;-62
2022/11/10 13:05:16;;;;;;;11.88;3.58;;;;;;;13.77;74.34;101113.41;2133598;83;27667;-60
2022/11/10 13:08:44;;;;;;;7.28;3.17;;;;;;;13.78;74.26;101113.81;2074396;85;28735;-59
2022/11/10 13:12:08;;;;;;;8.63;3.08;;;;;;;13.81;73.98;101114.15;2074117;85;32293;-59
2022/11/10 13:15:41;;;;;;;8.15;2.60;;;;;;;13.85;73.92;101114.37;2074149;85;33453;-63
2022/11/10 13:18:51;;;;;;;8.60;2.05;;;;;;;13.88;73.79;101120.95;2089697;81;29956;-59
2022/11/10 13:22:03;;;;;;;15.25;3.00;;;;;;;13.77;73.54;101097.74;2207677;80;27896;-59
2022/11/10 13:25:41;;;;;;;12.37;3.47;;;;;;;13.77;73.87;101122.84;2217969;80;29918;-59
2022/11/10 13:28:51;;;;;;;13.38;4.20;;;;;;;13.77;73.87;101122.84;2218327;80;31954;-60
2022/11/10 13:31:56;;;;;;;10.18;4.05;;;;;;;13.85;73.41;101133.22;2218446;80;33870;-60
2022/11/10 13:35:39;;;;;;;7.47;4.47;;;;;;;13.79;73.00;101144.32;2218562;80;29033;-60
2022/11/10 13:38:43;;;;;;;7.72;2.65;;;;;;;13.68;72.74;101150.23;2218106;80;27788;-59
2022/11/10 13:41:48;;;;;;;10.45;2.70;;;;;;;13.56;72.72;101157.57;2218373;80;28081;-59
2022/11/10 13:44:52;;;;;;;10.48;3.25;;;;;;;13.47;72.63;101161.09;2216620;80;31812;-60
2022/11/10 13:48:13;;;;;;;4.80;2.30;;;;;;;13.40;72.76;101162.34;2218410;80;33699;-59
2022/11/10 13:51:43;;;;;;;10.45;3.08;;;;;;;13.33;72.67;101164.88;2218667;80;30274;-70
2022/11/10 13:55:20;;;;;;;6.85;2.25;;;;;;;13.28;72.70;101164.22;2219063;80;27755;-72
2022/11/10 13:58:28;;;;;;;8.88;3.45;;;;;;;13.24;72.84;101174.75;2211462;80;28644;-60
2022/11/10 14:01:30;;;;;;;8.68;2.50;;;;;;;13.20;72.67;101182.07;2201919;80;31051;-61
2022/11/10 14:04:42;;;;;;;10.85;2.50;;;;;;;13.18;72.74;101185.30;2266237;78;34140;-61
2022/11/10 14:07:45;;;;;;;4.75;2.60;;;;;;;13.15;72.64;101193.05;2266572;78;29879;-59
2022/11/10 14:10:55;;;;;;;7.33;2.45;;;;;;;13.13;72.51;101192.25;2266583;78;27600;-58
2022/11/10 14:14:14;;;;;;;6.47;2.20;;;;;;;13.07;72.22;101194.75;2268983;78;28590;-60
2022/11/10 14:17:27;;;;;;;6.65;1.90;;;;;;;13.03;72.19;101197.66;2246936;79;31596;-59
2022/11/10 14:20:40;;;;;;;32.00;21.82;;;;;;;12.97;72.04;101197.92;2256801;78;34288;-60
2022/11/10 14:23:52;;;;;;;14.98;8.30;;;;;;;12.93;72.07;101207.95;2269590;78;30119;-60
2022/11/10 14:26:59;;;;;;;8.25;2.35;;;;;;;12.89;72.04;101209.03;2247144;79;27665;-57
2022/11/10 14:30:32;;;;;;;7.42;2.15;;;;;;;12.83;71.96;101216.02;2245888;79;28741;-61